createdAt,value
2022-08-14T00:01:55.226Z,5.17
2022-08-14T00:04:31.912Z,3.97
2022-08-14T00:07:03.449Z,4.03
2022-08-14T00:09:33.056Z,3.13
2022-08-14T00:12:01.296Z,4.53
2022-08-14T00:14:31.492Z,5.10
2022-08-14T00:17:01.271Z,4.27
2022-08-14T00:19:30.836Z,5.50
2022-08-14T00:21:59.860Z,6.30
2022-08-14T00:24:29.048Z,5.67
2022-08-14T00:27:01.774Z,3.20
2022-08-14T00:29:33.109Z,3.30
2022-08-14T00:32:52.541Z,6.27
2022-08-14T00:35:01.470Z,4.33
2022-08-14T00:37:29.515Z,3.03
2022-08-14T00:40:00.286Z,3.23
2022-08-14T00:42:54.811Z,3.93
2022-08-14T00:45:18.363Z,4.50
2022-08-14T00:47:49.284Z,4.90
2022-08-14T00:50:20.105Z,3.17
2022-08-14T00:52:52.392Z,4.37
2022-08-14T00:55:21.071Z,4.47
2022-08-14T00:58:10.282Z,3.90
2022-08-14T01:00:47.630Z,5.20
2022-08-14T01:03:26.722Z,2.60
2022-08-14T01:06:00.684Z,3.67
2022-08-14T01:08:57.590Z,2.47
2022-08-14T01:11:19.725Z,2.97
2022-08-14T01:13:50.840Z,2.73
2022-08-14T01:16:28.094Z,5.47
2022-08-14T01:19:16.513Z,4.80
2022-08-14T01:21:52.823Z,4.40
2022-08-14T01:24:24.852Z,3.93
2022-08-14T01:27:00.624Z,7.87
2022-08-14T01:29:43.111Z,3.50
2022-08-14T01:32:22.567Z,3.53
2022-08-14T01:35:18.700Z,2.97
2022-08-14T01:37:46.832Z,4.23
2022-08-14T01:40:25.553Z,3.43
2022-08-14T01:43:02.625Z,5.63
2022-08-14T01:45:31.504Z,4.17
2022-08-14T01:48:13.635Z,4.20
2022-08-14T01:50:45.103Z,2.97
2022-08-14T01:53:14.639Z,5.70
2022-08-14T01:55:42.572Z,4.53
2022-08-14T01:58:19.961Z,6.67
2022-08-14T02:00:55.724Z,3.37
2022-08-14T02:03:29.585Z,5.77
2022-08-14T02:05:59.857Z,3.20
2022-08-14T02:08:34.568Z,2.60
2022-08-14T02:11:22.525Z,4.37
2022-08-14T02:13:52.876Z,2.93
2022-08-14T02:16:26.439Z,4.80
2022-08-14T02:18:55.411Z,4.97
2022-08-14T02:21:23.744Z,2.70
2022-08-14T02:23:54.408Z,2.87
2022-08-14T02:26:24.773Z,6.50
2022-08-14T02:29:00.400Z,4.50
2022-08-14T02:31:42.412Z,10.03
2022-08-14T02:34:20.095Z,5.03
2022-08-14T02:37:03.832Z,6.13
2022-08-14T02:39:37.156Z,6.67
2022-08-14T02:42:05.963Z,9.23
2022-08-14T02:44:39.684Z,11.80
2022-08-14T02:47:15.142Z,7.10
2022-08-14T02:49:50.750Z,8.50
2022-08-14T02:52:56.303Z,8.20
2022-08-14T02:55:19.735Z,7.13
2022-08-14T02:57:51.819Z,14.03
2022-08-14T03:00:27.224Z,9.30
2022-08-14T03:02:58.752Z,6.73
2022-08-14T03:05:35.835Z,11.27
2022-08-14T03:08:08.044Z,6.80
2022-08-14T03:10:41.791Z,8.23
2022-08-14T03:13:13.815Z,8.03
2022-08-14T03:15:55.189Z,11.80
2022-08-14T03:18:31.423Z,6.67
2022-08-14T03:21:01.684Z,6.80
2022-08-14T03:23:34.257Z,9.37
2022-08-14T03:26:12.564Z,7.47
2022-08-14T03:28:47.001Z,7.60
2022-08-14T03:31:15.522Z,6.73
2022-08-14T03:33:43.791Z,7.97
2022-08-14T03:37:51.144Z,7.33
2022-08-14T03:39:12.834Z,7.23
2022-08-14T03:41:48.870Z,6.23
2022-08-14T03:45:26.902Z,9.00
2022-08-14T03:47:04.970Z,9.20
2022-08-14T03:49:34.059Z,7.27
2022-08-14T03:52:04.936Z,10.00
2022-08-14T03:54:52.275Z,8.43
2022-08-14T03:57:22.736Z,8.63
2022-08-14T03:59:51.839Z,6.40
2022-08-14T04:02:37.137Z,7.87
2022-08-14T04:05:11.991Z,7.17
2022-08-14T04:07:41.568Z,5.70
2022-08-14T04:10:32.401Z,7.93
2022-08-14T04:13:03.549Z,6.83
2022-08-14T04:15:32.172Z,6.43
2022-08-14T04:18:20.128Z,7.17
2022-08-14T04:20:54.531Z,8.93
2022-08-14T04:23:29.920Z,8.70
2022-08-14T04:26:01.423Z,7.17
2022-08-14T04:29:08.502Z,8.17
2022-08-14T04:31:34.639Z,7.17
2022-08-14T04:34:07.979Z,7.10
2022-08-14T04:36:59.212Z,7.00
2022-08-14T04:39:46.837Z,6.77
2022-08-14T04:42:32.431Z,7.47
2022-08-14T04:45:01.833Z,6.33
2022-08-14T04:47:47.452Z,5.97
2022-08-14T04:50:37.978Z,8.83
2022-08-14T04:53:11.040Z,7.63
2022-08-14T04:55:39.231Z,6.73
2022-08-14T04:58:07.324Z,8.50
2022-08-14T05:00:52.613Z,8.37
2022-08-14T05:03:21.790Z,4.97
2022-08-14T05:05:54.527Z,3.57
2022-08-14T05:08:31.896Z,5.30
2022-08-14T05:11:13.306Z,3.67
2022-08-14T05:16:31.777Z,6.43
2022-08-14T05:19:25.022Z,6.83
2022-08-14T05:21:59.634Z,13.67
2022-08-14T05:24:35.984Z,18.57
2022-08-14T05:27:05.528Z,14.97
2022-08-14T05:29:33.441Z,18.57
2022-08-14T05:32:06.558Z,19.60
2022-08-14T05:34:34.554Z,13.60
2022-08-14T05:37:03.175Z,10.33
2022-08-14T05:39:32.009Z,15.80
2022-08-14T05:42:00.418Z,11.90
2022-08-14T05:44:30.828Z,7.73
2022-08-14T05:46:59.069Z,5.03
2022-08-14T05:49:33.171Z,10.83
2022-08-14T05:52:02.300Z,8.87
2022-08-14T05:54:35.608Z,9.00
2022-08-14T05:57:03.804Z,5.53
2022-08-14T05:59:36.878Z,3.43
2022-08-14T06:02:07.864Z,4.70
2022-08-14T06:04:40.136Z,7.10
2022-08-14T06:07:08.404Z,5.87
2022-08-14T06:09:40.314Z,4.57
2022-08-14T06:12:09.198Z,6.77
2022-08-14T06:14:37.128Z,4.00
2022-08-14T06:17:06.783Z,5.63
2022-08-14T06:19:34.774Z,6.67
2022-08-14T06:22:04.272Z,5.83
2022-08-14T06:24:35.025Z,7.03
2022-08-14T06:27:06.246Z,4.67
2022-08-14T06:29:38.154Z,6.10
2022-08-14T06:32:37.967Z,8.23
2022-08-14T06:35:03.716Z,5.80
2022-08-14T06:37:43.093Z,7.50
2022-08-14T06:40:25.628Z,6.37
2022-08-14T06:42:56.823Z,8.97
2022-08-14T06:45:28.688Z,7.00
2022-08-14T06:47:58.739Z,9.90
2022-08-14T06:50:28.698Z,9.47
2022-08-14T06:52:59.851Z,12.27
2022-08-14T06:55:29.329Z,7.17
2022-08-14T06:57:58.212Z,7.10
2022-08-14T07:00:30.957Z,6.23
2022-08-14T07:03:17.094Z,4.43
2022-08-14T07:05:57.753Z,8.23
2022-08-14T07:08:29.679Z,5.67
2022-08-14T07:11:00.812Z,8.17
2022-08-14T07:13:30.420Z,6.13
2022-08-14T07:15:59.118Z,6.00
2022-08-14T07:18:29.791Z,8.37
2022-08-14T07:20:58.541Z,6.40
2022-08-14T07:23:28.184Z,7.90
2022-08-14T07:25:59.920Z,9.33
2022-08-14T07:28:28.819Z,7.30
2022-08-14T07:31:05.269Z,6.33
2022-08-14T07:33:35.235Z,7.00
2022-08-14T07:36:26.249Z,6.60
2022-08-14T07:38:56.162Z,8.87
2022-08-14T07:41:24.230Z,9.43
2022-08-14T07:43:55.153Z,8.60
2022-08-14T07:46:28.372Z,9.83
2022-08-14T07:48:58.234Z,6.40
2022-08-14T07:51:34.208Z,7.93
2022-08-14T07:54:09.793Z,6.50
2022-08-14T07:56:46.592Z,7.17
2022-08-14T07:59:18.654Z,7.10
2022-08-14T08:01:48.224Z,8.30
2022-08-14T08:04:24.088Z,10.70
2022-08-14T08:06:53.378Z,5.60
2022-08-14T08:09:31.840Z,6.53
2022-08-14T08:12:05.070Z,7.50
2022-08-14T08:14:56.153Z,6.77
2022-08-14T08:17:26.079Z,13.03
2022-08-14T08:20:02.505Z,7.97
2022-08-14T08:22:32.556Z,7.77
2022-08-14T08:25:02.106Z,6.90
2022-08-14T08:27:30.045Z,12.43
2022-08-14T08:30:04.419Z,10.37
2022-08-14T08:32:41.959Z,10.53
2022-08-14T08:35:18.645Z,7.30
2022-08-14T08:37:46.588Z,9.17
2022-08-14T08:40:24.652Z,8.23
2022-08-14T08:42:59.495Z,7.83
2022-08-14T08:45:27.827Z,7.43
2022-08-14T08:47:56.383Z,5.00
2022-08-14T08:50:31.582Z,7.73
2022-08-14T08:52:59.747Z,10.77
2022-08-14T08:55:32.986Z,11.43
2022-08-14T08:58:04.095Z,8.27
2022-08-14T09:00:35.062Z,9.70
2022-08-14T09:03:06.369Z,7.00
2022-08-14T09:05:38.523Z,6.53
2022-08-14T09:08:31.039Z,4.43
2022-08-14T09:11:18.765Z,7.33
2022-08-14T09:13:49.560Z,7.77
2022-08-14T09:16:20.204Z,7.77
2022-08-14T09:18:48.181Z,6.27
2022-08-14T09:21:16.414Z,5.77
2022-08-14T09:24:26.871Z,6.57
2022-08-14T09:26:34.068Z,6.27
2022-08-14T09:29:03.198Z,6.27
2022-08-14T09:31:43.212Z,5.10
2022-08-14T09:34:27.773Z,4.53
2022-08-14T09:37:20.380Z,3.83
2022-08-14T09:39:55.073Z,7.70
2022-08-14T09:42:50.197Z,4.90
2022-08-14T09:45:20.154Z,5.67
2022-08-14T09:47:52.214Z,3.97
2022-08-14T09:50:25.895Z,3.70
2022-08-14T09:52:57.077Z,4.60
2022-08-14T09:55:26.378Z,5.90
2022-08-14T09:58:08.623Z,3.10
2022-08-14T10:00:45.387Z,5.47
2022-08-14T10:03:13.723Z,4.33
2022-08-14T10:05:42.019Z,4.83
2022-08-14T10:08:25.331Z,3.97
2022-08-14T10:11:02.561Z,2.50
2022-08-14T10:13:43.568Z,5.63
2022-08-14T10:16:27.353Z,3.40
2022-08-14T10:19:05.419Z,4.53
2022-08-14T10:21:38.747Z,3.33
2022-08-14T10:24:31.256Z,4.30
2022-08-14T10:27:06.641Z,2.83
2022-08-14T10:29:38.598Z,4.27
2022-08-14T10:32:18.061Z,2.87
2022-08-14T10:35:05.514Z,3.93
2022-08-14T10:37:40.124Z,5.63
2022-08-14T10:40:32.518Z,2.90
2022-08-14T10:42:56.863Z,3.83
2022-08-14T10:45:33.860Z,5.10
2022-08-14T10:48:09.104Z,2.83
2022-08-14T10:50:42.158Z,2.60
2022-08-14T10:53:10.749Z,6.10
2022-08-14T10:55:45.626Z,2.60
2022-08-14T10:58:15.031Z,3.90
2022-08-14T11:00:56.777Z,4.30
2022-08-14T11:03:55.512Z,2.67
2022-08-14T11:06:20.299Z,3.40
2022-08-14T11:08:50.711Z,3.40
2022-08-14T11:11:19.437Z,3.83
2022-08-14T11:13:47.579Z,2.70
2022-08-14T11:16:17.115Z,3.10
2022-08-14T11:18:50.740Z,3.87
2022-08-14T11:21:23.452Z,1.90
2022-08-14T11:23:53.637Z,2.30
2022-08-14T11:26:24.381Z,2.17
2022-08-14T11:28:53.776Z,1.70
2022-08-14T11:31:25.006Z,2.17
2022-08-14T11:33:58.127Z,2.53
2022-08-14T11:36:35.287Z,2.30
2022-08-14T11:39:22.987Z,3.23
2022-08-14T11:42:55.419Z,2.67
2022-08-14T11:44:53.859Z,2.60
2022-08-14T11:47:26.503Z,1.67
2022-08-14T11:50:13.341Z,1.63
2022-08-14T11:52:41.466Z,1.57
2022-08-14T11:55:11.896Z,2.27
2022-08-14T11:57:39.910Z,2.70
2022-08-14T12:00:17.468Z,1.63
2022-08-14T12:03:03.614Z,2.93
2022-08-14T12:05:33.557Z,2.00
2022-08-14T12:08:11.905Z,3.13
2022-08-14T12:10:43.299Z,2.90
2022-08-14T12:13:12.012Z,1.87
2022-08-14T12:15:45.002Z,1.40
2022-08-14T12:18:19.766Z,2.47
2022-08-14T12:20:52.370Z,2.37
2022-08-14T12:23:22.267Z,1.40
2022-08-14T12:25:59.448Z,1.90
2022-08-14T12:29:00.063Z,1.80
2022-08-14T12:31:27.397Z,1.80
2022-08-14T12:34:10.098Z,1.93
2022-08-14T12:36:38.406Z,2.73
2022-08-14T12:39:18.325Z,1.77
2022-08-14T12:41:53.879Z,1.53
2022-08-14T12:44:30.794Z,2.20
2022-08-14T12:47:03.659Z,2.27
2022-08-14T12:49:35.680Z,1.97
2022-08-14T12:52:04.200Z,2.53
2022-08-14T12:54:32.639Z,2.30
2022-08-14T12:57:04.488Z,1.33
2022-08-14T12:59:36.958Z,1.30
2022-08-14T13:02:20.562Z,4.10
2022-08-14T13:04:56.699Z,1.50
2022-08-14T13:07:32.746Z,1.50
2022-08-14T13:10:34.341Z,1.77
2022-08-14T13:13:12.500Z,3.07
2022-08-14T13:15:40.543Z,1.43
2022-08-14T13:18:09.064Z,2.30
2022-08-14T13:20:39.133Z,1.90
2022-08-14T13:23:18.306Z,2.47
2022-08-14T13:25:56.085Z,1.80
2022-08-14T13:28:30.258Z,2.80
2022-08-14T13:31:03.856Z,3.93
2022-08-14T13:33:40.531Z,3.17
2022-08-14T13:36:24.468Z,2.37
2022-08-14T13:39:00.545Z,2.77
2022-08-14T13:41:31.806Z,2.37
2022-08-14T13:44:05.015Z,2.40
2022-08-14T13:46:36.270Z,4.43
2022-08-14T13:49:04.314Z,2.30
2022-08-14T13:51:37.696Z,2.23
2022-08-14T13:54:10.915Z,1.63
2022-08-14T13:56:40.157Z,3.00
2022-08-14T13:59:08.603Z,4.17
2022-08-14T14:01:42.910Z,1.93
2022-08-14T14:04:18.154Z,2.93
2022-08-14T14:06:50.880Z,5.23
2022-08-14T14:09:32.514Z,2.70
2022-08-14T14:12:08.176Z,3.57
2022-08-14T14:14:56.601Z,1.80
2022-08-14T14:17:25.408Z,3.13
2022-08-14T14:19:57.743Z,2.57
2022-08-14T14:22:36.109Z,1.87
2022-08-14T14:25:19.562Z,5.10
2022-08-14T14:27:53.241Z,4.80
2022-08-14T14:30:53.601Z,2.13
2022-08-14T14:33:42.390Z,2.03
2022-08-14T14:36:01.945Z,3.63
2022-08-14T14:38:34.739Z,2.07
2022-08-14T14:41:05.680Z,2.27
2022-08-14T14:43:39.077Z,1.50
2022-08-14T14:46:09.519Z,3.07
2022-08-14T14:48:46.472Z,4.10
2022-08-14T14:51:15.515Z,2.87
2022-08-14T14:53:46.540Z,2.03
2022-08-14T14:56:50.951Z,2.47
2022-08-14T14:59:02.828Z,1.60
2022-08-14T15:01:34.160Z,2.00
2022-08-14T15:04:07.732Z,4.23
2022-08-14T15:06:36.109Z,2.03
2022-08-14T15:09:17.657Z,2.10
2022-08-14T15:11:47.070Z,1.33
2022-08-14T15:14:55.784Z,3.33
2022-08-14T15:17:03.926Z,3.60
2022-08-14T15:19:32.493Z,1.40
2022-08-14T15:22:00.538Z,1.67
2022-08-14T15:24:29.894Z,3.80
2022-08-14T15:27:00.001Z,3.60
2022-08-14T15:29:28.207Z,4.37
2022-08-14T15:31:56.355Z,1.97
2022-08-14T15:34:44.529Z,1.93
2022-08-14T15:37:14.800Z,2.60
2022-08-14T15:39:46.246Z,1.93
2022-08-14T15:42:15.902Z,2.10
2022-08-14T15:44:58.512Z,2.20
2022-08-14T15:47:29.997Z,1.77
2022-08-14T15:49:59.301Z,2.70
2022-08-14T15:52:33.118Z,3.33
2022-08-14T15:55:15.885Z,4.40
2022-08-14T15:58:01.981Z,2.00
2022-08-14T16:00:49.642Z,6.63
2022-08-14T16:03:18.264Z,1.27
2022-08-14T16:05:56.735Z,1.93
2022-08-14T16:08:29.526Z,3.40
2022-08-14T16:11:00.019Z,2.00
2022-08-14T16:13:39.334Z,2.10
2022-08-14T16:16:49.499Z,2.03
2022-08-14T16:19:11.091Z,1.53
2022-08-14T16:21:58.357Z,1.73
2022-08-14T16:24:33.511Z,1.33
2022-08-14T16:27:05.134Z,0.73
2022-08-14T16:29:34.565Z,1.27
2022-08-14T16:32:33.580Z,1.63
2022-08-14T16:34:54.863Z,1.27
2022-08-14T16:37:30.452Z,1.07
2022-08-14T16:39:59.804Z,2.13
2022-08-14T16:43:03.336Z,1.23
2022-08-14T16:45:24.080Z,1.37
2022-08-14T16:47:52.034Z,1.77
2022-08-14T16:50:42.958Z,2.90
2022-08-14T16:53:09.534Z,2.67
2022-08-14T16:55:50.978Z,1.50
2022-08-14T16:58:30.088Z,1.50
2022-08-14T17:01:23.098Z,2.13
2022-08-14T17:03:54.422Z,1.50
2022-08-14T17:06:37.246Z,2.70
2022-08-14T17:09:05.775Z,2.47
2022-08-14T17:11:34.122Z,0.97
2022-08-14T17:14:10.515Z,5.27
2022-08-14T17:16:39.368Z,2.23
2022-08-14T17:19:13.378Z,1.93
2022-08-14T17:21:46.648Z,1.57
2022-08-14T17:24:57.129Z,1.70
2022-08-14T17:27:05.900Z,1.60
2022-08-14T17:29:44.539Z,4.40
2022-08-14T17:32:30.081Z,1.03
2022-08-14T17:35:16.764Z,2.37
2022-08-14T17:40:37.046Z,1.83
2022-08-14T17:43:05.463Z,3.23
2022-08-14T17:45:47.001Z,1.90
2022-08-14T17:49:14.167Z,1.37
2022-08-14T17:51:24.175Z,4.27
2022-08-14T17:54:02.483Z,2.57
2022-08-14T17:56:31.897Z,1.70
2022-08-14T17:59:01.838Z,1.23
2022-08-14T18:01:35.706Z,2.60
2022-08-14T18:04:05.655Z,3.13
2022-08-14T18:07:08.632Z,1.10
2022-08-14T18:09:56.855Z,1.10
2022-08-14T18:12:31.962Z,1.30
2022-08-14T18:15:14.556Z,4.30
2022-08-14T18:17:52.534Z,1.60
2022-08-14T18:21:40.013Z,4.73
2022-08-14T18:23:13.089Z,2.07
2022-08-14T18:25:43.459Z,5.83
2022-08-14T18:28:16.005Z,2.00
2022-08-14T18:30:58.123Z,2.33
2022-08-14T18:33:33.259Z,1.97
2022-08-14T18:36:46.675Z,1.33
2022-08-14T18:39:12.448Z,1.97
2022-08-14T18:41:40.432Z,1.80
2022-08-14T18:44:10.320Z,1.83
2022-08-14T18:47:00.536Z,2.53
2022-08-14T18:49:33.479Z,5.03
2022-08-14T18:52:20.349Z,1.90
2022-08-14T18:54:59.657Z,1.73
2022-08-14T18:57:52.316Z,2.07
2022-08-14T19:00:33.532Z,2.00
2022-08-14T19:03:02.138Z,2.87
2022-08-14T19:05:47.830Z,2.33
2022-08-14T19:08:27.186Z,2.47
2022-08-14T19:10:59.442Z,1.90
2022-08-14T19:13:47.892Z,1.90
2022-08-14T19:16:18.657Z,3.40
2022-08-14T19:18:51.802Z,4.77
2022-08-14T19:21:24.588Z,3.80
2022-08-14T19:24:29.900Z,41.50
2022-08-14T19:27:15.065Z,3.77
2022-08-14T19:29:47.976Z,4.23
2022-08-14T19:32:36.491Z,2.43
2022-08-14T19:35:16.477Z,2.70
2022-08-14T19:37:48.621Z,1.97
2022-08-14T19:40:33.252Z,5.53
2022-08-14T19:43:09.021Z,1.80
2022-08-14T19:45:38.188Z,2.40
2022-08-14T19:48:12.723Z,3.90
2022-08-14T19:50:44.231Z,1.53
2022-08-14T19:53:17.545Z,2.07
2022-08-14T19:55:58.623Z,4.67
2022-08-14T19:58:37.715Z,2.23
2022-08-14T20:01:26.326Z,3.37
2022-08-14T20:04:05.963Z,4.33
2022-08-14T20:06:43.284Z,2.83
2022-08-14T20:11:06.480Z,2.23
2022-08-14T20:12:05.448Z,2.70
2022-08-14T20:14:53.309Z,1.80
2022-08-14T20:17:22.412Z,1.83
2022-08-14T20:19:50.471Z,3.53
2022-08-14T20:22:36.629Z,3.43
2022-08-14T20:25:15.322Z,3.13
2022-08-14T20:27:45.484Z,2.93
2022-08-14T20:30:35.968Z,1.23
2022-08-14T20:33:07.818Z,2.50
2022-08-14T20:35:42.822Z,1.77
2022-08-14T20:38:30.273Z,2.50
2022-08-14T20:41:00.783Z,2.63
2022-08-14T20:43:53.079Z,1.90
2022-08-14T20:46:23.601Z,1.67
2022-08-14T20:48:58.536Z,3.50
2022-08-14T20:51:37.001Z,1.30
2022-08-14T20:54:06.787Z,2.10
2022-08-14T20:56:37.115Z,2.73
2022-08-14T20:59:17.779Z,1.73
2022-08-14T21:01:47.913Z,2.03
2022-08-14T21:04:27.031Z,1.33
2022-08-14T21:07:24.966Z,1.93
2022-08-14T21:10:04.717Z,3.70
2022-08-14T21:12:34.303Z,2.30
2022-08-14T21:15:04.981Z,1.73
2022-08-14T21:17:41.522Z,2.27
2022-08-14T21:20:26.289Z,2.10
2022-08-14T21:22:56.509Z,3.33
2022-08-14T21:25:28.931Z,1.93
2022-08-14T21:28:01.131Z,2.83
2022-08-14T21:30:51.093Z,2.63
2022-08-14T21:33:21.475Z,1.50
2022-08-14T21:35:50.028Z,1.70
2022-08-14T21:38:33.451Z,1.97
2022-08-14T21:41:02.813Z,2.80
2022-08-14T21:43:54.647Z,2.03
2022-08-14T21:46:22.740Z,1.30
2022-08-14T21:48:53.890Z,1.80
2022-08-14T21:51:53.418Z,2.40
2022-08-14T21:54:30.445Z,1.40
2022-08-14T21:56:59.047Z,4.33
2022-08-14T21:59:30.713Z,1.27
2022-08-14T22:02:03.611Z,2.77
2022-08-14T22:04:41.462Z,3.00
2022-08-14T22:07:10.669Z,2.07
2022-08-14T22:09:42.818Z,2.67
2022-08-14T22:12:47.339Z,1.67
2022-08-14T22:15:01.925Z,1.93
2022-08-14T22:17:32.410Z,3.40
2022-08-14T22:20:06.301Z,1.97
2022-08-14T22:22:34.356Z,3.53
2022-08-14T22:25:02.330Z,1.73
2022-08-14T22:27:32.240Z,1.60
2022-08-14T22:30:00.592Z,1.50
2022-08-14T22:32:56.314Z,1.70
2022-08-14T22:35:18.407Z,2.83
2022-08-14T22:37:46.650Z,3.63
2022-08-14T22:41:05.404Z,2.80
2022-08-14T22:43:24.384Z,1.50
2022-08-14T22:45:55.536Z,3.27
2022-08-14T22:48:24.118Z,3.00
2022-08-14T22:50:53.919Z,2.03
2022-08-14T22:53:22.067Z,1.53
2022-08-14T22:55:51.947Z,3.13
2022-08-14T22:58:20.518Z,3.10
2022-08-14T23:01:00.320Z,1.90
2022-08-14T23:03:28.749Z,2.43
2022-08-14T23:05:59.259Z,1.63
2022-08-14T23:09:02.209Z,2.23
2022-08-14T23:11:15.539Z,3.90
2022-08-14T23:13:46.161Z,4.63
2022-08-14T23:16:19.979Z,2.20
2022-08-14T23:18:53.940Z,3.33
2022-08-14T23:21:25.156Z,2.00
2022-08-14T23:23:57.222Z,3.33
2022-08-14T23:26:48.072Z,2.47
2022-08-14T23:29:13.208Z,3.10
2022-08-14T23:31:45.978Z,3.93
2022-08-14T23:34:20.920Z,1.70
2022-08-14T23:36:53.242Z,3.23
2022-08-14T23:39:24.485Z,2.90
2022-08-14T23:41:57.940Z,2.17
2022-08-14T23:44:35.246Z,2.90
2022-08-14T23:47:12.200Z,2.67
2022-08-14T23:50:00.567Z,2.27
2022-08-14T23:53:04.201Z,2.17
2022-08-14T23:55:23.555Z,4.13
2022-08-14T23:57:58.534Z,2.60
